Time;durP1;ratioP1;P1;durP2;ratioP2;P2;SDS_P1;SDS_P2;PMS_P1;PMS_P2;Temp;Humidity;BMP_temperature;BMP_pressure;BME280_temperature;BME280_humidity;BME280_pressure;Samples;Min_cycle;Max_cycle;Signal;HPM_P1;HPM_P2
2022/10/10 00:01:36;;;;;;;13.67;5.90;;;;;;;18.41;42.45;101492.38;5090963;28;20036;-74
2022/10/10 00:04:03;;;;;;;9.33;5.63;;;;;;;18.53;42.65;101490.22;5091257;28;20035;-74
2022/10/10 00:06:29;;;;;;;9.90;5.90;;;;;;;18.74;42.16;101489.53;5091645;28;20035;-74
2022/10/10 00:08:55;;;;;;;8.33;6.10;;;;;;;19.17;41.07;101491.63;5092063;28;20114;-74
2022/10/10 00:11:22;;;;;;;10.47;5.60;;;;;;;18.76;42.21;101481.53;5089364;28;20120;-75
2022/10/10 00:13:48;;;;;;;9.43;5.63;;;;;;;18.46;42.49;101482.50;5091366;28;20439;-75
2022/10/10 00:16:14;;;;;;;10.57;5.80;;;;;;;18.71;42.28;101486.97;5089368;28;20044;-74
2022/10/10 00:18:40;;;;;;;9.80;6.00;;;;;;;19.26;41.19;101478.03;5091932;28;20114;-75
2022/10/10 00:21:06;;;;;;;6.60;5.63;;;;;;;18.23;43.05;101482.34;5092089;28;20027;-74
2022/10/10 00:23:31;;;;;;;8.93;6.20;;;;;;;18.69;42.82;101475.56;5092585;28;20369;-75
2022/10/10 00:25:57;;;;;;;9.70;6.17;;;;;;;18.77;41.74;101468.22;5091313;28;20028;-74
2022/10/10 00:28:22;;;;;;;10.60;6.13;;;;;;;18.77;42.17;101468.22;5091084;28;20039;-74
2022/10/10 00:30:48;;;;;;;11.50;6.00;;;;;;;18.67;42.53;101468.59;5092098;28;20107;-75
2022/10/10 00:33:13;;;;;;;8.07;6.10;;;;;;;18.79;41.95;101466.41;5091896;28;20110;-74
2022/10/10 00:35:39;;;;;;;11.23;6.30;;;;;;;18.83;41.71;101472.44;5089437;28;20138;-74
2022/10/10 00:38:04;;;;;;;9.37;6.27;;;;;;;18.28;42.65;101472.50;5092377;28;20031;-74
2022/10/10 00:40:30;;;;;;;9.77;5.63;;;;;;;18.82;41.58;101460.09;5104681;27;20032;-74
2022/10/10 00:42:56;;;;;;;13.70;5.90;;;;;;;18.57;42.57;101465.38;5109222;28;20028;-74
2022/10/10 00:45:27;;;;;;;9.83;6.07;;;;;;;18.64;42.42;101459.84;5088897;28;20475;-74
2022/10/10 00:48:20;;;;;;;8.77;6.20;;;;;;;18.91;41.77;101464.28;5089964;28;20118;-74
2022/10/10 00:50:54;;;;;;;10.13;6.53;;;;;;;18.82;42.15;101458.34;5089040;28;20055;-74
2022/10/10 00:53:28;;;;;;;11.07;5.93;;;;;;;18.49;42.79;101462.97;5091938;28;20143;-74
2022/10/10 00:55:54;;;;;;;12.63;6.10;;;;;;;18.40;43.11;101453.56;5090979;28;20043;-74
2022/10/10 00:58:20;;;;;;;11.07;6.83;;;;;;;18.65;42.17;101455.41;5088768;28;20024;-74
2022/10/10 01:00:46;;;;;;;14.13;6.73;;;;;;;18.33;42.90;101451.16;5090862;28;20377;-74
2022/10/10 01:03:11;;;;;;;9.47;6.17;;;;;;;18.27;43.28;101449.59;5088852;28;20992;-74
2022/10/10 01:05:40;;;;;;;9.90;6.27;;;;;;;18.19;43.99;101454.28;5088686;28;20119;-74
2022/10/10 01:08:06;;;;;;;11.70;6.03;;;;;;;18.58;42.39;101452.09;5089409;28;20024;-74
2022/10/10 01:10:40;;;;;;;12.30;6.40;;;;;;;18.76;42.42;101440.00;5089517;28;20126;-74
2022/10/10 01:13:13;;;;;;;10.77;6.83;;;;;;;18.61;43.04;101448.47;5105152;27;20078;-74
2022/10/10 01:15:47;;;;;;;9.30;6.82;;;;;;;18.63;42.40;101451.97;5095125;27;20107;-74
2022/10/10 01:18:34;;;;;;;9.80;6.37;;;;;;;18.37;43.16;101442.22;5086977;28;20493;-74
2022/10/10 01:21:19;;;;;;;10.57;6.30;;;;;;;18.67;42.87;101435.06;5089352;28;20036;-74
2022/10/10 01:23:53;;;;;;;8.73;7.00;;;;;;;18.12;43.72;101443.91;5071847;28;20125;-74
2022/10/10 01:26:27;;;;;;;9.60;6.50;;;;;;;18.10;44.46;101435.13;5087499;28;20048;-75
2022/10/10 01:29:11;;;;;;;10.97;6.53;;;;;;;18.38;43.29;101441.31;5090982;28;20036;-74
2022/10/10 01:31:41;;;;;;;9.73;6.70;;;;;;;18.39;43.50;101435.97;5090890;28;20657;-74
2022/10/10 01:34:31;;;;;;;10.67;6.80;;;;;;;18.62;43.45;101423.75;5093134;28;20042;-74
2022/10/10 01:37:05;;;;;;;11.37;7.07;;;;;;;18.05;43.94;101426.50;5090343;28;20460;-74
2022/10/10 01:39:44;;;;;;;12.90;6.93;;;;;;;18.68;42.56;101418.22;5092216;28;20107;-74
2022/10/10 01:42:27;;;;;;;11.37;6.40;;;;;;;18.24;43.65;101415.31;5091929;28;20020;-74
2022/10/10 01:44:53;;;;;;;11.98;6.75;;;;;;;18.84;42.73;101420.34;5090464;28;20027;-74
2022/10/10 01:47:20;;;;;;;13.10;6.77;;;;;;;18.61;42.59;101408.78;5090053;28;20024;-74
2022/10/10 01:49:50;;;;;;;10.90;6.57;;;;;;;18.03;43.54;101408.94;5090460;28;20038;-75
2022/10/10 01:52:33;;;;;;;10.20;6.90;;;;;;;18.72;42.59;101409.25;5088685;28;20447;-74
2022/10/10 01:55:01;;;;;;;8.87;6.80;;;;;;;18.33;43.18;101401.78;5075984;28;20028;-74
2022/10/10 01:58:02;;;;;;;10.60;6.90;;;;;;;18.17;43.45;101397.91;5109805;27;20119;-74
2022/10/10 02:00:34;;;;;;;11.17;6.20;;;;;;;17.97;44.01;101402.06;5090406;28;20036;-74
2022/10/10 02:03:15;;;;;;;9.27;6.60;;;;;;;18.14;43.35;101399.72;5093163;28;20031;-74
2022/10/10 02:05:57;;;;;;;9.80;6.57;;;;;;;18.77;42.67;101399.38;5089304;28;20165;-74
2022/10/10 02:08:30;;;;;;;10.02;6.68;;;;;;;18.75;42.12;101395.94;5088725;28;20388;-74
2022/10/10 02:10:59;;;;;;;10.20;6.78;;;;;;;18.45;43.08;101390.78;5089411;28;20073;-74
2022/10/10 02:13:31;;;;;;;12.93;6.80;;;;;;;18.78;42.18;101390.53;5086159;28;20023;-74
2022/10/10 02:15:59;;;;;;;12.00;5.93;;;;;;;18.76;42.32;101387.03;5089257;28;20082;-74
2022/10/10 02:18:31;;;;;;;9.67;6.60;;;;;;;18.48;42.64;101393.31;5090352;28;20035;-74
2022/10/10 02:20:58;;;;;;;10.05;6.82;;;;;;;18.33;43.17;101387.66;5088070;28;20024;-74
2022/10/10 02:23:24;;;;;;;14.40;7.37;;;;;;;18.51;42.69;101383.56;5087628;28;20078;-74
2022/10/10 02:25:52;;;;;;;10.40;6.37;;;;;;;18.37;42.89;101379.59;5089890;28;20060;-74
2022/10/10 02:28:28;;;;;;;10.47;6.43;;;;;;;18.37;43.08;101373.41;5089413;28;20039;-74
2022/10/10 02:30:58;;;;;;;14.27;6.50;;;;;;;18.49;43.08;101378.28;5089589;28;20062;-74
2022/10/10 02:33:32;;;;;;;12.43;7.07;;;;;;;18.68;42.22;101373.22;5092310;28;20074;-74
2022/10/10 02:35:59;;;;;;;10.47;6.73;;;;;;;18.32;43.55;101373.56;5088348;28;20757;-74
2022/10/10 02:38:26;;;;;;;11.27;6.60;;;;;;;18.04;43.74;101371.84;5089451;28;20027;-74
2022/10/10 02:40:53;;;;;;;10.53;6.30;;;;;;;17.62;45.31;101367.00;5088790;28;20081;-74
2022/10/10 02:43:19;;;;;;;9.43;6.93;;;;;;;17.58;44.83;101363.56;5089647;28;20491;-74
2022/10/10 02:45:45;;;;;;;14.87;7.13;;;;;;;17.66;44.51;101365.13;5089702;28;20055;-74
2022/10/10 02:48:10;;;;;;;10.03;6.43;;;;;;;17.71;44.76;101358.78;5088992;28;20024;-74
2022/10/10 02:50:37;;;;;;;10.60;6.77;;;;;;;17.69;43.98;101355.31;5090018;28;20075;-74
2022/10/10 02:53:02;;;;;;;10.37;6.73;;;;;;;17.48;45.67;101351.56;5087794;28;20043;-74
2022/10/10 02:55:28;;;;;;;13.33;7.40;;;;;;;17.82;44.17;101355.78;5087836;28;20024;-74
2022/10/10 02:57:53;;;;;;;9.47;6.57;;;;;;;17.29;45.41;101357.38;5090352;28;20016;-74
2022/10/10 03:00:19;;;;;;;13.87;7.67;;;;;;;17.37;45.38;101351.88;5088530;28;20080;-74
2022/10/10 03:02:45;;;;;;;12.10;6.53;;;;;;;17.16;45.44;101350.75;5088534;28;20507;-74
2022/10/10 03:05:10;;;;;;;12.70;7.10;;;;;;;17.19;45.57;101355.09;5088579;28;20024;-74
2022/10/10 03:07:36;;;;;;;12.57;6.77;;;;;;;17.85;44.29;101346.91;5087113;28;20028;-74
2022/10/10 03:10:04;;;;;;;13.43;7.47;;;;;;;17.94;44.22;101347.50;5087452;28;20024;-73
2022/10/10 03:12:30;;;;;;;12.67;7.17;;;;;;;18.09;43.60;101343.50;5107608;28;20027;-74
2022/10/10 03:14:55;;;;;;;13.53;7.30;;;;;;;18.03;43.70;101348.97;5088307;28;20020;-74
2022/10/10 03:17:21;;;;;;;10.70;7.10;;;;;;;17.65;44.43;101337.81;5087683;28;20020;-74
2022/10/10 03:19:46;;;;;;;12.37;6.50;;;;;;;17.95;43.60;101343.91;5088385;28;20030;-74
2022/10/10 03:22:11;;;;;;;13.63;7.17;;;;;;;17.44;45.20;101340.22;5087462;28;20430;-74
2022/10/10 03:24:37;;;;;;;20.53;8.37;;;;;;;17.77;44.71;101345.34;5090677;28;20121;-74
2022/10/10 03:27:02;;;;;;;16.17;7.10;;;;;;;17.27;45.45;101342.53;5088295;28;20118;-74
2022/10/10 03:29:27;;;;;;;12.47;7.40;;;;;;;17.74;44.58;101341.97;5092040;28;20105;-74
2022/10/10 03:31:53;;;;;;;16.00;7.50;;;;;;;17.79;44.17;101353.22;5092771;28;20020;-74
2022/10/10 03:34:18;;;;;;;15.13;7.30;;;;;;;17.51;45.04;101345.31;5108895;27;20046;-74
2022/10/10 03:36:44;;;;;;;14.90;8.40;;;;;;;18.09;43.71;101347.91;5094921;27;20047;-74
2022/10/10 03:39:09;;;;;;;11.27;6.87;;;;;;;17.79;44.46;101346.19;5080108;28;20028;-74
2022/10/10 03:41:35;;;;;;;13.17;6.60;;;;;;;17.52;45.01;101339.97;5090009;28;20679;-74
2022/10/10 03:44:00;;;;;;;14.73;7.13;;;;;;;18.26;43.61;101339.41;5093328;28;20030;-75
2022/10/10 03:46:26;;;;;;;10.70;7.20;;;;;;;17.75;44.21;101339.25;5089457;28;20020;-74
2022/10/10 03:48:51;;;;;;;14.03;7.67;;;;;;;17.83;44.13;101340.78;5092834;28;20056;-74
2022/10/10 03:51:17;;;;;;;14.60;7.00;;;;;;;17.92;44.37;101341.38;5092292;28;20523;-74
2022/10/10 03:53:42;;;;;;;11.90;7.00;;;;;;;17.71;44.90;101342.03;5101483;28;20035;-74
2022/10/10 03:56:08;;;;;;;11.60;7.10;;;;;;;17.70;44.68;101343.81;5093621;28;20459;-75
2022/10/10 03:58:33;;;;;;;16.60;7.17;;;;;;;17.96;44.79;101347.44;5089056;28;20020;-74
2022/10/10 04:01:01;;;;;;;10.17;7.13;;;;;;;18.07;43.87;101340.00;5094049;28;20020;-75
2022/10/10 04:03:27;;;;;;;11.57;7.30;;;;;;;17.95;44.14;101345.72;5091617;28;20537;-74
2022/10/10 04:05:53;;;;;;;12.07;6.70;;;;;;;17.55;45.18;101341.66;5091765;28;20027;-74
2022/10/10 04:08:19;;;;;;;12.63;7.03;;;;;;;17.78;44.61;101339.16;5092066;28;20016;-75
2022/10/10 04:10:53;;;;;;;13.50;7.90;;;;;;;17.62;45.01;101340.56;5090934;28;20027;-74
2022/10/10 04:13:19;;;;;;;16.13;7.77;;;;;;;17.73;44.80;101341.06;5088705;28;20429;-74
2022/10/10 04:15:44;;;;;;;11.00;7.67;;;;;;;17.56;45.09;101338.13;5092251;28;20024;-74
2022/10/10 04:18:10;;;;;;;18.17;7.70;;;;;;;17.68;44.70;101336.84;5093713;28;20099;-74
2022/10/10 04:20:35;;;;;;;12.63;7.10;;;;;;;17.44;45.23;101329.63;5091102;28;20032;-75
2022/10/10 04:23:01;;;;;;;12.57;7.27;;;;;;;17.67;45.46;101325.41;5091132;28;20080;-74
2022/10/10 04:25:26;;;;;;;15.07;8.07;;;;;;;17.68;45.04;101332.44;5093272;28;20392;-74
2022/10/10 04:27:51;;;;;;;11.73;7.47;;;;;;;17.45;45.77;101336.66;5091186;28;20429;-74
2022/10/10 04:30:18;;;;;;;12.77;7.53;;;;;;;17.35;45.42;101335.22;5092007;28;20034;-75
2022/10/10 04:32:43;;;;;;;12.20;7.10;;;;;;;17.90;44.58;101331.72;5091316;28;20449;-74
2022/10/10 04:35:09;;;;;;;13.33;7.40;;;;;;;17.62;45.24;101337.91;5091881;28;20028;-74
2022/10/10 04:37:36;;;;;;;11.73;7.60;;;;;;;17.53;45.00;101327.63;5100307;28;20018;-74
2022/10/10 04:40:02;;;;;;;10.80;7.17;;;;;;;17.57;45.09;101335.44;5089056;28;20032;-75
2022/10/10 04:42:28;;;;;;;11.97;7.70;;;;;;;17.68;44.38;101334.22;5090320;28;20118;-75
2022/10/10 04:44:53;;;;;;;12.27;6.90;;;;;;;18.34;43.51;101339.13;5093070;28;20185;-74
2022/10/10 04:47:18;;;;;;;15.47;7.03;;;;;;;17.90;44.64;101342.31;5092171;28;20024;-74
2022/10/10 04:49:44;;;;;;;8.87;6.47;;;;;;;17.97;44.18;101343.91;5090923;28;20109;-74
2022/10/10 04:52:10;;;;;;;16.13;7.97;;;;;;;17.86;44.27;101336.28;5090944;28;20058;-74
2022/10/10 04:54:35;;;;;;;15.80;6.90;;;;;;;18.26;43.21;101336.75;5087377;28;20024;-74
2022/10/10 04:57:01;;;;;;;15.37;7.03;;;;;;;17.71;44.57;101329.69;5127704;27;20024;-74
2022/10/10 04:59:26;;;;;;;11.73;6.70;;;;;;;17.91;44.20;101346.69;5096416;28;20024;-75
2022/10/10 05:01:52;;;;;;;11.73;6.90;;;;;;;18.00;44.62;101349.06;5088028;28;20038;-75
2022/10/10 05:04:17;;;;;;;12.87;7.17;;;;;;;17.94;44.27;101344.84;5089247;28;20149;-74
2022/10/10 05:06:42;;;;;;;9.50;6.77;;;;;;;18.39;43.56;101340.69;5090852;28;20043;-74
2022/10/10 05:09:08;;;;;;;12.80;7.13;;;;;;;17.87;44.46;101343.28;5089742;28;20120;-75
2022/10/10 05:11:33;;;;;;;11.67;7.47;;;;;;;18.03;43.85;101354.25;5091747;28;20051;-74
2022/10/10 05:13:59;;;;;;;16.60;10.17;;;;;;;17.60;44.57;101347.69;5088718;28;20059;-74
2022/10/10 05:16:24;;;;;;;11.73;7.03;;;;;;;17.67;44.56;101351.84;5090204;28;20024;-74
2022/10/10 05:18:50;;;;;;;10.93;7.07;;;;;;;17.85;44.32;101346.91;5090951;28;20095;-75
2022/10/10 05:21:15;;;;;;;14.97;7.73;;;;;;;18.10;43.54;101344.34;5090540;28;20540;-74
2022/10/10 05:23:41;;;;;;;11.57;7.00;;;;;;;18.08;43.49;101346.16;5087686;28;20035;-75
2022/10/10 05:26:07;;;;;;;14.07;7.27;;;;;;;17.80;44.27;101350.56;5091336;28;20059;-74
2022/10/10 05:28:36;;;;;;;14.77;8.10;;;;;;;17.61;44.88;101357.31;5091242;28;20097;-75
2022/10/10 05:31:03;;;;;;;14.80;7.27;;;;;;;17.51;45.02;101347.97;5089979;28;20263;-74
2022/10/10 05:33:29;;;;;;;13.17;7.90;;;;;;;16.84;46.96;101343.72;5093702;28;20077;-74
2022/10/10 05:36:12;;;;;;;20.13;7.87;;;;;;;16.82;47.15;101350.81;5092145;28;20027;-74
2022/10/10 05:38:39;;;;;;;13.57;7.05;;;;;;;17.49;45.23;101352.41;5091123;28;20482;-74
2022/10/10 05:41:05;;;;;;;12.40;8.00;;;;;;;17.42;45.26;101352.63;5088206;28;20042;-74
2022/10/10 05:43:31;;;;;;;12.67;7.93;;;;;;;17.35;45.14;101356.38;5090883;28;20028;-74
2022/10/10 05:45:57;;;;;;;13.10;7.67;;;;;;;17.16;46.26;101355.16;5091408;28;20433;-75
2022/10/10 05:48:23;;;;;;;12.33;7.27;;;;;;;17.48;45.69;101348.91;5090641;28;20468;-74
2022/10/10 05:50:51;;;;;;;17.53;8.00;;;;;;;17.52;45.29;101353.19;5089793;28;20043;-74
2022/10/10 05:53:17;;;;;;;13.03;7.33;;;;;;;17.77;44.85;101352.44;5088646;28;20441;-75
2022/10/10 05:55:45;;;;;;;15.83;8.47;;;;;;;18.04;44.19;101360.41;5108423;28;20454;-74
2022/10/10 05:58:12;;;;;;;13.33;7.77;;;;;;;17.40;45.67;101358.84;5090396;28;20024;-75
2022/10/10 06:00:42;;;;;;;11.23;8.13;;;;;;;17.49;45.99;101358.59;5090008;28;20459;-74
2022/10/10 06:03:11;;;;;;;14.97;7.20;;;;;;;17.39;46.17;101359.75;5090138;28;20472;-75
2022/10/10 06:05:37;;;;;;;13.70;7.70;;;;;;;17.17;46.46;101363.03;5088558;28;20122;-73
2022/10/10 06:08:02;;;;;;;19.63;8.97;;;;;;;17.60;45.27;101358.25;5098044;28;20146;-74
2022/10/10 06:10:28;;;;;;;17.47;8.03;;;;;;;17.04;47.07;101366.97;5086782;28;20032;-75
2022/10/10 06:12:53;;;;;;;14.53;8.13;;;;;;;16.89;47.96;101357.69;5088501;28;20075;-75
2022/10/10 06:15:18;;;;;;;16.67;8.07;;;;;;;17.20;47.59;101368.25;5090764;28;20019;-74
2022/10/10 06:17:44;;;;;;;18.17;8.57;;;;;;;17.26;47.60;101349.56;5089492;28;20019;-74
2022/10/10 06:20:09;;;;;;;15.13;7.70;;;;;;;17.56;47.00;101354.84;5091125;28;20020;-75
2022/10/10 06:22:35;;;;;;;15.93;7.80;;;;;;;17.51;46.95;101359.38;5088933;28;20039;-75
2022/10/10 06:25:00;;;;;;;14.40;7.80;;;;;;;17.65;46.65;101364.25;5088631;28;20131;-74
2022/10/10 06:27:25;;;;;;;11.87;7.20;;;;;;;17.71;46.86;101364.06;5090304;28;20035;-74
2022/10/10 06:29:51;;;;;;;18.17;7.43;;;;;;;17.88;46.36;101367.94;5088580;28;20024;-74
2022/10/10 06:32:16;;;;;;;16.47;8.10;;;;;;;17.33;47.72;101362.59;5107380;28;20534;-75
2022/10/10 06:34:41;;;;;;;12.93;7.20;;;;;;;17.83;46.46;101356.66;5106579;28;20377;-74
2022/10/10 06:37:07;;;;;;;17.57;7.83;;;;;;;17.59;46.97;101364.44;5088934;28;20039;-74
2022/10/10 06:39:33;;;;;;;12.23;7.87;;;;;;;17.33;47.57;101363.47;5089398;28;20024;-75
2022/10/10 06:41:58;;;;;;;16.90;7.10;;;;;;;17.90;46.33;101363.47;5090670;28;20082;-74
2022/10/10 06:44:23;;;;;;;13.17;7.80;;;;;;;17.44;48.17;101371.06;5089791;28;20050;-74
2022/10/10 06:46:49;;;;;;;18.17;7.97;;;;;;;17.95;47.58;101377.44;5086759;28;20032;-74
2022/10/10 06:49:14;;;;;;;14.70;7.33;;;;;;;17.72;47.78;101376.38;5092811;28;20047;-75
2022/10/10 06:51:39;;;;;;;14.67;7.67;;;;;;;17.41;48.94;101390.50;5079475;28;20415;-74
2022/10/10 06:54:05;;;;;;;13.53;8.07;;;;;;;17.94;47.55;101381.00;5093177;28;20056;-75
2022/10/10 06:56:31;;;;;;;14.13;8.40;;;;;;;18.13;47.48;101384.78;5085291;28;20387;-74
2022/10/10 06:58:56;;;;;;;16.20;8.60;;;;;;;17.15;49.15;101385.13;5089519;28;20411;-75
2022/10/10 07:01:23;;;;;;;14.27;7.57;;;;;;;18.34;46.89;101379.69;5088694;28;20373;-74
2022/10/10 07:03:49;;;;;;;14.13;8.20;;;;;;;18.25;47.04;101377.34;5074585;28;20074;-75
2022/10/10 07:06:15;;;;;;;13.00;8.17;;;;;;;18.78;46.24;101385.22;5092766;28;20020;-74
2022/10/10 07:08:40;;;;;;;14.50;8.17;;;;;;;17.62;49.32;101393.41;5091877;28;20024;-74
2022/10/10 07:11:06;;;;;;;13.97;8.43;;;;;;;17.28;51.46;101394.41;5091243;28;20062;-75
2022/10/10 07:13:33;;;;;;;20.40;8.23;;;;;;;17.06;51.87;101397.69;5092027;28;20024;-74
2022/10/10 07:15:59;;;;;;;15.03;8.80;;;;;;;18.23;49.73;101402.97;5094854;28;20024;-75
2022/10/10 07:18:25;;;;;;;16.67;7.90;;;;;;;18.56;47.49;101405.41;5092701;28;20042;-75
2022/10/10 07:20:58;;;;;;;14.23;8.73;;;;;;;18.18;50.18;101410.22;5104402;27;20024;-75
2022/10/10 07:23:24;;;;;;;17.07;8.13;;;;;;;18.52;48.51;101404.66;5077210;28;20062;-75
2022/10/10 07:25:51;;;;;;;14.77;8.23;;;;;;;19.02;47.92;101409.13;5093445;28;20537;-74
2022/10/10 07:28:16;;;;;;;13.73;8.10;;;;;;;18.84;47.76;101407.13;5090456;28;20041;-75
2022/10/10 07:30:43;;;;;;;12.00;8.23;;;;;;;18.36;49.39;101406.97;5091753;28;20073;-75
2022/10/10 07:33:13;;;;;;;11.87;8.20;;;;;;;18.23;49.03;101398.56;5090850;28;20035;-75
2022/10/10 07:35:39;;;;;;;18.20;8.07;;;;;;;19.10;48.09;101387.66;5087749;28;20023;-75
2022/10/10 07:38:05;;;;;;;16.10;7.77;;;;;;;19.50;46.70;101387.00;5087311;28;20509;-75
2022/10/10 07:40:30;;;;;;;14.53;8.00;;;;;;;19.62;46.96;101392.78;5075210;28;20028;-74
2022/10/10 07:42:55;;;;;;;13.63;8.37;;;;;;;19.46;47.05;101390.69;5092905;28;20020;-75
2022/10/10 07:45:21;;;;;;;15.57;7.50;;;;;;;19.42;48.30;101401.47;5093389;28;20020;-75
2022/10/10 07:47:46;;;;;;;15.07;8.43;;;;;;;19.14;48.95;101392.78;5089297;28;20016;-75
2022/10/10 07:50:12;;;;;;;15.80;7.50;;;;;;;19.01;49.04;101402.09;5088226;28;20032;-75
2022/10/10 07:52:39;;;;;;;14.40;6.83;;;;;;;19.91;47.06;101404.91;5092295;28;20462;-75
2022/10/10 07:55:05;;;;;;;12.00;6.80;;;;;;;18.63;50.37;101409.59;5092260;28;20031;-75
2022/10/10 07:57:33;;;;;;;12.40;7.05;;;;;;;19.20;48.89;101401.44;5092162;28;20028;-75
2022/10/10 08:00:09;;;;;;;11.10;6.72;;;;;;;19.99;47.61;101407.25;5090604;28;20027;-75
2022/10/10 08:02:35;;;;;;;13.68;7.18;;;;;;;20.41;46.97;101411.69;5092212;28;20142;-75
2022/10/10 08:05:01;;;;;;;13.48;7.20;;;;;;;20.91;45.66;101414.91;5091772;28;20122;-75
2022/10/10 08:07:27;;;;;;;11.82;7.63;;;;;;;20.65;45.53;101422.22;5091865;28;20028;-75
2022/10/10 08:09:52;;;;;;;12.82;6.93;;;;;;;20.85;45.15;101418.72;5091701;28;20035;-75
2022/10/10 08:12:18;;;;;;;10.98;6.95;;;;;;;20.29;45.77;101431.66;5086156;28;20075;-74
2022/10/10 08:14:43;;;;;;;13.48;6.50;;;;;;;21.43;44.61;101431.19;5101881;27;20028;-75
2022/10/10 08:17:08;;;;;;;18.83;7.60;;;;;;;22.07;42.95;101434.38;5091481;28;20024;-75
2022/10/10 08:19:34;;;;;;;8.82;6.20;;;;;;;22.37;42.27;101439.19;5089969;28;20644;-75
2022/10/10 08:21:59;;;;;;;11.25;6.65;;;;;;;21.47;43.07;101443.41;5090221;28;20024;-75
2022/10/10 08:24:25;;;;;;;15.70;6.63;;;;;;;21.59;43.95;101443.78;5091198;28;20051;-75
2022/10/10 08:26:50;;;;;;;11.30;6.57;;;;;;;20.96;44.37;101447.47;5091023;28;20020;-75
2022/10/10 08:29:16;;;;;;;13.77;6.10;;;;;;;22.42;42.42;101439.81;5098782;28;20035;-74
2022/10/10 08:31:41;;;;;;;13.60;6.05;;;;;;;20.96;44.55;101452.78;5077188;28;20020;-75
2022/10/10 08:34:08;;;;;;;19.00;6.60;;;;;;;22.19;42.32;101441.78;5091472;28;20680;-75
2022/10/10 08:36:34;;;;;;;12.48;6.35;;;;;;;22.44;41.85;101448.56;5080962;28;20159;-74
2022/10/10 08:39:00;;;;;;;11.20;6.75;;;;;;;22.36;42.08;101448.09;5071085;28;20142;-74
2022/10/10 08:42:01;;;;;;;13.75;7.00;;;;;;;22.48;42.00;101442.16;5088743;28;20028;-75
2022/10/10 08:44:48;;;;;;;14.23;5.90;;;;;;;21.86;43.35;101450.47;5033444;28;20035;-75
2022/10/10 08:47:38;;;;;;;9.80;5.50;;;;;;;22.88;41.29;101453.41;5086888;28;20036;-75
2022/10/10 08:50:28;;;;;;;12.85;5.82;;;;;;;23.28;40.67;101446.97;5091212;28;20194;-76
2022/10/10 08:53:02;;;;;;;13.73;6.32;;;;;;;23.65;39.99;101439.59;5100557;28;20121;-75
2022/10/10 08:55:34;;;;;;;14.82;5.88;;;;;;;23.31;40.37;101430.78;5095150;27;20032;-78
2022/10/10 08:58:24;;;;;;;11.93;6.70;;;;;;;21.41;44.96;101438.34;5087890;28;20032;-75
2022/10/10 09:00:59;;;;;;;13.25;6.40;;;;;;;21.90;43.92;101455.63;5092354;28;20110;-75
2022/10/10 09:03:35;;;;;;;10.98;5.78;;;;;;;21.84;43.77;101457.66;5090360;28;20101;-75
2022/10/10 09:06:24;;;;;;;9.65;6.03;;;;;;;22.70;42.89;101457.03;5089646;28;20111;-75
2022/10/10 09:08:56;;;;;;;17.98;6.40;;;;;;;22.66;42.65;101456.31;5077378;28;20121;-75
2022/10/10 09:11:37;;;;;;;15.05;6.07;;;;;;;21.42;44.11;101461.34;5086152;28;20055;-74
2022/10/10 09:14:32;;;;;;;14.40;6.07;;;;;;;21.78;45.01;101457.94;5097939;28;20024;-77
2022/10/10 09:17:04;;;;;;;12.13;6.28;;;;;;;23.64;40.93;101453.88;5089384;28;20034;-76
2022/10/10 09:19:50;;;;;;;11.85;6.38;;;;;;;23.30;41.70;101461.94;5092288;28;20024;-77
2022/10/10 09:22:21;;;;;;;11.55;6.05;;;;;;;22.85;42.62;101472.25;5074629;28;20366;-77
2022/10/10 09:25:17;;;;;;;10.32;5.15;;;;;;;23.54;40.84;101459.72;5089549;28;20028;-76
2022/10/10 09:27:51;;;;;;;11.52;5.90;;;;;;;24.59;39.74;101457.41;5080716;28;20093;-76
2022/10/10 09:30:19;;;;;;;22.02;6.68;;;;;;;23.44;41.26;101457.63;5085894;28;20043;-76
2022/10/10 09:32:50;;;;;;;11.85;5.65;;;;;;;22.82;42.60;101472.41;5089146;28;20101;-76
2022/10/10 09:35:28;;;;;;;10.13;5.32;;;;;;;21.90;44.40;101466.28;5090636;28;20028;-76
2022/10/10 09:38:04;;;;;;;10.82;5.82;;;;;;;24.25;40.93;101470.06;5085998;28;20507;-75
2022/10/10 09:40:36;;;;;;;13.20;5.72;;;;;;;24.84;39.49;101479.09;5091511;28;20086;-76
2022/10/10 09:43:16;;;;;;;14.68;6.15;;;;;;;25.49;38.63;101482.34;5089395;28;20118;-76
2022/10/10 09:45:52;;;;;;;13.70;5.53;;;;;;;25.01;40.01;101485.22;5090849;28;20027;-76
2022/10/10 09:48:21;;;;;;;9.80;5.38;;;;;;;22.59;44.24;101496.69;5091329;28;20043;-75
2022/10/10 09:50:46;;;;;;;13.40;5.78;;;;;;;24.05;41.87;101501.47;5090203;28;20044;-76
2022/10/10 09:53:15;;;;;;;11.60;5.45;;;;;;;24.46;40.60;101500.91;5087792;28;20093;-76
2022/10/10 09:55:41;;;;;;;9.13;5.15;;;;;;;22.99;43.63;101502.66;5091646;28;20127;-76
2022/10/10 09:58:28;;;;;;;12.50;5.32;;;;;;;23.37;42.73;101502.47;5090527;28;20527;-76
2022/10/10 10:01:01;;;;;;;14.57;6.15;;;;;;;23.69;42.92;101499.88;5089178;28;20058;-76
2022/10/10 10:03:27;;;;;;;;;;;;;;;23.15;43.87;101500.94;5088826;28;20029;-77
2022/10/10 10:06:00;;;;;;;12.48;4.68;;;;;;;23.76;41.17;101511.91;5089872;28;19916;-76
2022/10/10 10:08:31;;;;;;;13.68;5.70;;;;;;;21.92;47.17;101522.97;5092717;28;20063;-76
2022/10/10 10:10:57;;;;;;;12.40;5.68;;;;;;;22.36;44.79;101523.50;5105192;28;20028;-76
2022/10/10 10:13:35;;;;;;;14.48;5.47;;;;;;;24.26;41.63;101519.88;5086853;28;20062;-76
2022/10/10 10:16:13;;;;;;;13.93;6.18;;;;;;;24.03;42.29;101522.06;5087372;28;20388;-76
2022/10/10 10:18:43;;;;;;;13.30;6.22;;;;;;;25.04;40.20;101534.03;5085610;28;20024;-76
2022/10/10 10:21:23;;;;;;;12.55;6.20;;;;;;;23.44;43.49;101527.88;5089801;28;20020;-76
2022/10/10 10:23:56;;;;;;;14.48;6.05;;;;;;;24.95;40.71;101539.06;5085187;28;20031;-77
2022/10/10 10:26:40;;;;;;;13.13;5.85;;;;;;;23.85;42.83;101543.44;5088589;28;20031;-77
2022/10/10 10:29:27;;;;;;;17.88;6.30;;;;;;;23.10;43.99;101540.28;5093459;28;20097;-76
2022/10/10 10:32:02;;;;;;;11.07;5.22;;;;;;;23.13;44.91;101548.13;5090035;28;20021;-76
2022/10/10 10:34:54;;;;;;;12.75;5.82;;;;;;;23.78;42.82;101542.06;5091518;28;20503;-76
2022/10/10 10:37:39;;;;;;;9.00;5.10;;;;;;;24.85;41.08;101544.97;5075795;28;20027;-76
2022/10/10 10:40:22;;;;;;;16.83;5.65;;;;;;;23.32;44.53;101552.53;5091920;28;20028;-76
2022/10/10 10:43:02;;;;;;;;;;;;;;;25.45;40.83;101553.91;5092372;28;20074;-76
2022/10/10 10:45:28;;;;;;;10.15;4.88;;;;;;;24.97;41.46;101558.56;5087821;28;19927;-76
2022/10/10 10:48:32;;;;;;;11.63;4.85;;;;;;;25.28;40.63;101556.72;5085678;28;20040;-77
2022/10/10 10:51:04;;;;;;;8.63;5.15;;;;;;;25.26;41.10;101563.97;5115167;27;20040;-77
2022/10/10 10:54:06;;;;;;;11.65;4.68;;;;;;;23.66;44.22;101558.75;5094474;28;20106;-77
2022/10/10 10:56:41;;;;;;;12.00;5.18;;;;;;;22.02;48.11;101572.16;5105920;28;20427;-77
2022/10/10 10:59:18;;;;;;;12.55;4.88;;;;;;;24.24;44.29;101570.72;5093880;28;20024;-77
2022/10/10 11:01:56;;;;;;;10.75;4.90;;;;;;;24.93;43.54;101573.06;5093688;28;20170;-78
2022/10/10 11:04:31;;;;;;;8.50;4.93;;;;;;;24.17;44.53;101564.84;5090582;28;20032;-77
2022/10/10 11:07:21;;;;;;;15.10;4.97;;;;;;;24.02;44.99;101571.06;5093802;27;20061;-78
2022/10/10 11:09:55;;;;;;;16.27;5.47;;;;;;;23.23;46.47;101577.84;5076061;28;20031;-78
2022/10/10 11:12:51;;;;;;;9.68;4.85;;;;;;;22.42;49.08;101578.31;5087756;28;20039;-78
2022/10/10 11:15:28;;;;;;;13.20;5.07;;;;;;;23.18;46.92;101586.09;5093630;28;20218;-77
2022/10/10 11:18:09;;;;;;;12.07;4.85;;;;;;;22.86;48.47;101587.69;5090716;28;20115;-77
2022/10/10 11:21:22;;;;;;;13.52;4.95;;;;;;;23.75;46.77;101584.91;5104353;27;20097;-77
2022/10/10 11:23:54;;;;;;;11.80;4.95;;;;;;;21.96;49.71;101580.44;5090142;28;20047;-77
2022/10/10 11:26:34;;;;;;;15.55;4.68;;;;;;;22.97;48.34;101581.81;5091135;28;20031;-76
2022/10/10 11:29:09;;;;;;;12.73;5.00;;;;;;;24.22;46.09;101572.59;5104642;27;20771;-77
2022/10/10 11:31:37;;;;;;;11.13;4.70;;;;;;;23.10;48.05;101582.94;5093134;28;20028;-76
2022/10/10 11:34:12;;;;;;;13.13;4.80;;;;;;;23.69;46.53;101572.75;5096368;28;20059;-77